Jacquet River, Canada
Current Conditions -  °F | °C
As of 6:00 PM on Sunday 23 Nov 2014 (Local Time) from CZBF Reporting Station
Broken Clouds Broken Clouds  
Wind Chill:   Ceiling: 3500
Heat Index:   Visibility: 15mi
Dew Point: -2°   Wind: 3mph
Humidity: 75%   Direction: 230°SW
Pressure: 30.07"   Gusts: NA
Location:  47.92°N, 66°W
Report Text: CZBF 232200Z 23003KT 15SM BKN035 02/M02 A3007 RMK SC7 SLP185
Loading
Personal Weather Stations






























Interactive Weather Map New forecast layout! Learn more

10-Day Weather Forecast

Advertisements
Track Severe Weather on mobile